Time;durP1;ratioP1;P1;durP2;ratioP2;P2;SDS_P1;SDS_P2;PMS_P1;PMS_P2;Temp;Humidity;BMP_temperature;BMP_pressure;BME280_temperature;BME280_humidity;BME280_pressure;Samples;Min_cycle;Max_cycle;Signal;HPM_P1;HPM_P2
2022/02/21 00:02:16;;;;;;;;;;;;;;;8.50;61.65;99856.03;5091684;28;887;-59
2022/02/21 00:04:42;;;;;;;;;;;;;;;8.47;62.49;99843.81;5091684;28;871;-58
2022/02/21 00:07:09;;;;;;;;;;;;;;;8.53;62.64;99836.75;5091814;28;870;-59
2022/02/21 00:09:35;;;;;;;;;;;;;;;8.65;62.07;99830.09;5091678;28;866;-58
2022/02/21 00:12:02;;;;;;;;;;;;;;;8.69;61.73;99836.41;5091397;28;1894;-59
2022/02/21 00:14:28;;;;;;;;;;;;;;;8.70;61.85;99837.19;5091569;28;909;-58
2022/02/21 00:16:56;;;;;;;;;;;;;;;8.65;62.22;99841.13;5091687;28;1005;-58
2022/02/21 00:19:21;;;;;;;;;;;;;;;8.55;62.28;99848.16;5091349;28;897;-59
2022/02/21 00:21:48;;;;;;;;;;;;;;;8.51;62.55;99852.09;5091416;28;857;-59
2022/02/21 00:24:14;;;;;;;;;;;;;;;8.51;62.82;99852.09;5091334;28;929;-59
2022/02/21 00:26:40;;;;;;;;;;;;;;;8.48;62.84;99853.66;5092017;28;846;-59
2022/02/21 00:29:08;;;;;;;;;;;;;;;8.48;62.66;99850.91;5091639;28;1046;-59
2022/02/21 00:31:35;;;;;;;;;;;;;;;8.48;62.36;99850.13;5091248;28;1870;-59
2022/02/21 00:34:01;;;;;;;;;;;;;;;8.23;62.80;99812.19;5091933;28;823;-59
2022/02/21 00:36:28;;;;;;;;;;;;;;;8.44;62.80;99847.34;5091587;28;910;-59
2022/02/21 00:38:54;;;;;;;;;;;;;;;8.39;63.06;99845.72;5091759;28;1350;-58
2022/02/21 00:41:20;;;;;;;;;;;;;;;8.35;63.18;99847.66;5092059;28;767;-59
2022/02/21 00:43:47;;;;;;;;;;;;;;;8.32;63.50;99847.63;5091222;28;870;-59
2022/02/21 00:46:13;;;;;;;;;;;;;;;8.25;64.28;99844.84;5091240;28;890;-59
2022/02/21 00:48:40;;;;;;;;;;;;;;;8.27;63.66;99845.25;5091108;28;902;-59
2022/02/21 00:51:08;;;;;;;;;;;;;;;8.26;63.77;99846.44;5091049;28;1902;-59
2022/02/21 00:53:35;;;;;;;;;;;;;;;8.19;64.37;99841.66;5091100;28;803;-59
2022/02/21 00:56:02;;;;;;;;;;;;;;;8.18;64.25;99840.09;5091304;28;855;-59
2022/02/21 00:58:28;;;;;;;;;;;;;;;8.19;64.43;99838.91;5091138;28;870;-59
2022/02/21 01:00:54;;;;;;;;;;;;;;;8.13;65.07;99846.00;5110238;28;846;-59
2022/02/21 01:03:20;;;;;;;;;;;;;;;8.09;65.00;99848.72;5094985;28;941;-59
2022/02/21 01:05:47;;;;;;;;;;;;;;;8.11;64.92;99851.09;5094597;28;1090;-58
2022/02/21 01:08:14;;;;;;;;;;;;;;;8.11;65.46;99831.81;5094854;28;913;-59
2022/02/21 01:10:40;;;;;;;;;;;;;;;8.04;65.21;99818.78;5076520;28;905;-58
2022/02/21 01:13:07;;;;;;;;;;;;;;;7.88;66.50;99821.84;5094796;28;1886;-58
2022/02/21 01:15:33;;;;;;;;;;;;;;;7.69;67.04;99820.16;5094879;28;932;-58
2022/02/21 01:18:00;;;;;;;;;;;;;;;7.59;67.81;99817.31;5094461;28;890;-58
2022/02/21 01:20:27;;;;;;;;;;;;;;;7.54;67.76;99819.25;5110540;28;845;-58
2022/02/21 01:22:53;;;;;;;;;;;;;;;7.43;67.63;99812.09;5094760;28;834;-58
2022/02/21 01:25:20;;;;;;;;;;;;;;;7.32;68.13;99809.25;5094470;28;855;-58
2022/02/21 01:27:46;;;;;;;;;;;;;;;7.24;69.38;99805.66;5094795;28;851;-58
2022/02/21 01:30:13;;;;;;;;;;;;;;;7.20;69.36;99809.53;5094584;28;859;-58
2022/02/21 01:32:40;;;;;;;;;;;;;;;7.20;69.03;99806.81;5094376;28;1890;-58
2022/02/21 01:35:07;;;;;;;;;;;;;;;7.11;69.35;99813.41;5094290;28;875;-58
2022/02/21 01:37:33;;;;;;;;;;;;;;;6.93;70.17;99816.00;5094342;28;865;-58
2022/02/21 01:40:00;;;;;;;;;;;;;;;6.78;71.44;99818.94;5076160;28;1403;-58
2022/02/21 01:42:26;;;;;;;;;;;;;;;6.71;71.71;99819.66;5094306;28;822;-58
2022/02/21 01:44:53;;;;;;;;;;;;;;;6.77;71.40;99820.91;5094342;28;885;-58
2022/02/21 01:47:21;;;;;;;;;;;;;;;6.69;71.76;99814.53;5094052;28;958;-59
2022/02/21 01:49:48;;;;;;;;;;;;;;;6.65;72.28;99805.47;5094024;28;1358;-58
2022/02/21 01:52:16;;;;;;;;;;;;;;;6.52;72.64;99810.41;5093933;28;1969;-58
2022/02/21 01:54:42;;;;;;;;;;;;;;;6.45;73.50;99810.34;5094007;28;998;-59
2022/02/21 01:57:08;;;;;;;;;;;;;;;6.39;73.02;99800.84;5109832;28;853;-59
2022/02/21 01:59:36;;;;;;;;;;;;;;;6.32;73.79;99801.56;5093860;28;893;-58
2022/02/21 02:02:03;;;;;;;;;;;;;;;6.28;74.02;99797.19;5093910;28;795;-58
2022/02/21 02:04:30;;;;;;;;;;;;;;;6.30;73.86;99798.41;5093765;28;991;-58
2022/02/21 02:06:58;;;;;;;;;;;;;;;6.32;74.29;99795.28;5093890;28;822;-59
2022/02/21 02:09:25;;;;;;;;;;;;;;;6.33;74.00;99800.38;5094015;28;888;-59
2022/02/21 02:11:52;;;;;;;;;;;;;;;6.38;74.72;99796.56;5093457;28;1885;-58
2022/02/21 02:14:30;;;;;;;;;;;;;;;6.38;73.88;99796.56;5093682;28;921;-58
2022/02/21 02:17:08;;;;;;;;;;;;;;;6.37;73.70;99791.41;5093922;28;925;-58
2022/02/21 02:19:35;;;;;;;;;;;;;;;6.45;73.95;99791.13;5093672;28;798;-59
2022/02/21 02:22:28;;;;;;;;;;;;;;;6.56;73.63;99774.00;5093485;28;1007;-58
2022/02/21 02:24:55;;;;;;;;;;;;;;;6.49;73.70;99770.00;5091074;28;1988;-58
2022/02/21 02:27:22;;;;;;;;;;;;;;;6.45;73.94;99766.41;5093487;28;854;-58
2022/02/21 02:29:50;;;;;;;;;;;;;;;6.57;72.96;99770.84;5093343;28;814;-58
2022/02/21 02:32:17;;;;;;;;;;;;;;;6.65;73.29;99767.00;5093469;28;1881;-58
2022/02/21 02:34:46;;;;;;;;;;;;;;;6.74;72.58;99762.03;5093208;28;908;-58
2022/02/21 02:37:13;;;;;;;;;;;;;;;6.73;72.83;99767.88;5109170;28;980;-58
2022/02/21 02:39:40;;;;;;;;;;;;;;;6.96;72.27;99756.72;5093389;28;1033;-58
2022/02/21 02:42:07;;;;;;;;;;;;;;;7.09;71.50;99769.00;5093315;28;913;-59
2022/02/21 02:44:33;;;;;;;;;;;;;;;7.16;71.09;99768.28;5093428;28;811;-58
2022/02/21 02:46:59;;;;;;;;;;;;;;;7.28;70.57;99767.22;5093253;28;839;-58
2022/02/21 02:49:26;;;;;;;;;;;;;;;7.32;70.35;99765.28;5093063;28;822;-58
2022/02/21 02:51:53;;;;;;;;;;;;;;;7.30;70.44;99760.16;5092936;28;1983;-59
2022/02/21 02:54:20;;;;;;;;;;;;;;;7.30;70.20;99762.13;5093170;28;931;-58
2022/02/21 02:56:47;;;;;;;;;;;;;;;7.34;70.55;99755.47;5092765;28;897;-58
2022/02/21 02:59:14;;;;;;;;;;;;;;;7.40;69.86;99763.34;5092696;28;937;-59
2022/02/21 03:01:40;;;;;;;;;;;;;;;7.60;68.90;99750.94;5092765;28;831;-59
2022/02/21 03:04:08;;;;;;;;;;;;;;;7.73;68.93;99754.16;5092311;28;894;-59
2022/02/21 03:06:34;;;;;;;;;;;;;;;7.88;67.79;99749.50;5092534;28;859;-59
2022/02/21 03:09:01;;;;;;;;;;;;;;;7.89;68.30;99756.59;5092631;28;957;-59
2022/02/21 03:11:27;;;;;;;;;;;;;;;7.76;68.96;99761.63;5092519;28;1890;-59
2022/02/21 03:13:55;;;;;;;;;;;;;;;7.76;68.07;99765.16;5092454;28;898;-58
2022/02/21 03:16:21;;;;;;;;;;;;;;;7.82;68.28;99757.34;5092535;28;938;-58
2022/02/21 03:18:48;;;;;;;;;;;;;;;7.65;69.21;99755.28;5092236;28;871;-59
2022/02/21 03:21:15;;;;;;;;;;;;;;;7.55;69.63;99763.09;5092082;28;883;-58
2022/02/21 03:23:42;;;;;;;;;;;;;;;7.54;69.62;99761.50;5091467;28;890;-58
2022/02/21 03:26:08;;;;;;;;;;;;;;;7.48;70.01;99765.75;5092322;28;834;-57
2022/02/21 03:28:35;;;;;;;;;;;;;;;7.45;69.22;99765.75;5092295;28;815;-58
2022/02/21 03:31:01;;;;;;;;;;;;;;;7.43;69.42;99755.13;5092145;28;835;-59
2022/02/21 03:33:28;;;;;;;;;;;;;;;7.43;70.17;99744.13;5091994;28;1886;-59
2022/02/21 03:35:55;;;;;;;;;;;;;;;7.38;70.34;99743.69;5092166;28;870;-59
2022/02/21 03:38:22;;;;;;;;;;;;;;;7.41;69.06;99735.47;5092080;28;909;-58
2022/02/21 03:40:51;;;;;;;;;;;;;;;7.69;69.07;99737.63;5091936;28;811;-59
2022/02/21 03:43:18;;;;;;;;;;;;;;;7.73;68.56;99746.69;5091980;28;890;-58
2022/02/21 03:45:44;;;;;;;;;;;;;;;7.55;69.16;99737.50;5091863;28;862;-59
2022/02/21 03:48:11;;;;;;;;;;;;;;;7.36;68.98;99731.13;5091901;28;946;-59
2022/02/21 03:50:38;;;;;;;;;;;;;;;7.15;69.61;99723.50;5091678;28;1365;-59
2022/02/21 03:53:04;;;;;;;;;;;;;;;6.95;70.89;99717.44;5091729;28;1918;-58
2022/02/21 03:55:31;;;;;;;;;;;;;;;6.75;70.39;99714.16;5091946;28;823;-58
2022/02/21 03:57:57;;;;;;;;;;;;;;;6.61;71.42;99727.72;5091765;28;834;-59
2022/02/21 04:00:24;;;;;;;;;;;;;;;6.58;71.55;99735.97;5073509;28;2141;-59
2022/02/21 04:02:51;;;;;;;;;;;;;;;6.57;72.23;99731.63;5091829;28;897;-59
2022/02/21 04:05:16;;;;;;;;;;;;;;;6.75;72.75;99721.59;5091715;28;827;-58
2022/02/21 04:07:43;;;;;;;;;;;;;;;6.81;72.52;99714.59;5091653;28;913;-58
2022/02/21 04:10:10;;;;;;;;;;;;;;;7.11;70.62;99719.16;5091757;28;909;-59
2022/02/21 04:12:37;;;;;;;;;;;;;;;6.91;70.71;99729.59;5073474;28;1897;-59
2022/02/21 04:15:05;;;;;;;;;;;;;;;6.49;71.87;99726.06;5091400;28;1093;-60
2022/02/21 04:17:40;;;;;;;;;;;;;;;6.20;72.53;99727.69;5091665;28;889;-58
2022/02/21 04:20:07;;;;;;;;;;;;;;;5.93;72.78;99722.28;5091958;28;884;-58
2022/02/21 04:22:34;;;;;;;;;;;;;;;5.76;73.66;99722.84;5091786;28;913;-59
2022/02/21 04:25:00;;;;;;;;;;;;;;;5.65;73.48;99728.16;5092001;28;818;-58
2022/02/21 04:27:27;;;;;;;;;;;;;;;5.52;73.92;99718.56;5091911;28;1306;-58
2022/02/21 04:29:53;;;;;;;;;;;;;;;5.38;74.48;99710.94;5091454;28;926;-58
2022/02/21 04:32:20;;;;;;;;;;;;;;;5.22;74.77;99713.06;5091379;28;1918;-58
2022/02/21 04:34:47;;;;;;;;;;;;;;;5.04;75.02;99716.31;5094714;28;807;-58
2022/02/21 04:37:13;;;;;;;;;;;;;;;5.03;76.05;99719.41;5095471;28;906;-58
2022/02/21 04:39:40;;;;;;;;;;;;;;;5.08;76.87;99716.38;5077273;28;1561;-58
2022/02/21 04:42:07;;;;;;;;;;;;;;;5.10;77.27;99717.59;5095343;28;905;-58
2022/02/21 04:44:33;;;;;;;;;;;;;;;5.12;77.76;99714.44;5095091;28;834;-58
2022/02/21 04:46:59;;;;;;;;;;;;;;;5.13;77.79;99707.81;5095373;28;914;-58
2022/02/21 04:49:26;;;;;;;;;;;;;;;5.19;78.41;99708.31;5095078;28;966;-58
2022/02/21 04:51:53;;;;;;;;;;;;;;;5.32;78.44;99704.19;5094974;28;1917;-58
2022/02/21 04:54:19;;;;;;;;;;;;;;;5.52;77.99;99704.88;5095138;28;819;-58
2022/02/21 04:56:46;;;;;;;;;;;;;;;5.50;77.75;99699.78;5095261;28;885;-58
2022/02/21 04:59:12;;;;;;;;;;;;;;;5.40;78.05;99699.59;5095160;28;846;-58
2022/02/21 05:01:38;;;;;;;;;;;;;;;5.24;78.24;99700.56;5094956;28;835;-59
2022/02/21 05:04:04;;;;;;;;;;;;;;;5.16;78.05;99695.34;5095111;28;834;-58
2022/02/21 05:06:31;;;;;;;;;;;;;;;5.06;78.95;99697.56;5095053;28;916;-59
2022/02/21 05:08:58;;;;;;;;;;;;;;;4.99;79.02;99693.91;5095019;28;815;-59
2022/02/21 05:11:25;;;;;;;;;;;;;;;4.87;78.94;99689.44;5094606;28;1890;-58
2022/02/21 05:13:51;;;;;;;;;;;;;;;4.98;79.24;99692.34;5094470;28;890;-58
2022/02/21 05:16:18;;;;;;;;;;;;;;;5.17;79.09;99697.72;5094880;28;1041;-58
2022/02/21 05:18:45;;;;;;;;;;;;;;;5.23;79.03;99699.00;5094847;28;868;-58
2022/02/21 05:21:11;;;;;;;;;;;;;;;5.12;78.85;99698.00;5094624;28;799;-59
2022/02/21 05:23:38;;;;;;;;;;;;;;;5.09;78.75;99694.06;5094649;28;859;-58
2022/02/21 05:26:04;;;;;;;;;;;;;;;5.02;79.00;99693.97;5094431;28;883;-58
2022/02/21 05:28:31;;;;;;;;;;;;;;;4.96;79.13;99694.66;5094645;28;854;-59
2022/02/21 05:30:58;;;;;;;;;;;;;;;4.89;79.31;99701.59;5094884;28;847;-59
2022/02/21 05:33:25;;;;;;;;;;;;;;;4.95;79.27;99693.88;5095008;28;1984;-58
2022/02/21 05:35:51;;;;;;;;;;;;;;;5.04;79.08;99699.88;5094433;28;886;-58
2022/02/21 05:38:17;;;;;;;;;;;;;;;5.14;78.95;99701.19;5094404;28;1216;-58
2022/02/21 05:40:43;;;;;;;;;;;;;;;5.21;78.69;99695.03;5094251;28;915;-58
2022/02/21 05:43:09;;;;;;;;;;;;;;;5.31;78.44;99708.09;5094169;28;859;-58
2022/02/21 05:45:35;;;;;;;;;;;;;;;5.42;77.94;99711.78;5093576;28;860;-58
2022/02/21 05:48:01;;;;;;;;;;;;;;;5.49;77.87;99717.38;5094245;28;815;-58
2022/02/21 05:50:28;;;;;;;;;;;;;;;5.62;77.63;99719.91;5093846;28;1447;-59
2022/02/21 05:52:54;;;;;;;;;;;;;;;5.78;77.56;99722.44;5094036;28;1977;-58
2022/02/21 05:55:21;;;;;;;;;;;;;;;5.95;76.73;99721.13;5094007;28;881;-58
2022/02/21 05:57:48;;;;;;;;;;;;;;;6.15;76.66;99710.78;5094195;28;822;-58
2022/02/21 06:00:14;;;;;;;;;;;;;;;6.37;76.31;99715.34;5093912;28;917;-58
2022/02/21 06:02:41;;;;;;;;;;;;;;;6.65;75.16;99719.53;5094166;28;913;-58
2022/02/21 06:05:07;;;;;;;;;;;;;;;6.82;74.74;99705.19;5094183;28;810;-58
2022/02/21 06:07:34;;;;;;;;;;;;;;;6.73;74.86;99711.00;5094033;28;888;-58
2022/02/21 06:10:01;;;;;;;;;;;;;;;6.65;75.07;99712.09;5094164;28;870;-59
2022/02/21 06:12:27;;;;;;;;;;;;;;;6.69;74.99;99710.16;5094049;28;1957;-58
2022/02/21 06:14:54;;;;;;;;;;;;;;;6.75;74.88;99708.66;5094289;28;763;-59
2022/02/21 06:17:20;;;;;;;;;;;;;;;6.84;74.73;99704.81;5093676;28;810;-58
2022/02/21 06:19:47;;;;;;;;;;;;;;;7.02;73.58;99705.75;5093750;28;870;-58
2022/02/21 06:22:12;;;;;;;;;;;;;;;7.15;73.48;99709.78;5093425;28;930;-58
2022/02/21 06:24:39;;;;;;;;;;;;;;;7.20;73.26;99711.38;5093487;28;945;-59
2022/02/21 06:27:05;;;;;;;;;;;;;;;7.41;73.28;99709.94;5093516;28;831;-59
2022/02/21 06:29:32;;;;;;;;;;;;;;;7.57;72.50;99705.72;5093065;28;855;-58
2022/02/21 06:31:58;;;;;;;;;;;;;;;7.68;72.41;99711.28;5093240;28;1898;-58
2022/02/21 06:34:25;;;;;;;;;;;;;;;7.80;71.71;99714.88;5093256;28;921;-58
2022/02/21 06:36:52;;;;;;;;;;;;;;;7.87;71.01;99712.16;5093175;28;858;-58
2022/02/21 06:39:19;;;;;;;;;;;;;;;7.96;70.58;99702.38;5093187;28;862;-58
2022/02/21 06:41:49;;;;;;;;;;;;;;;8.23;70.51;99693.00;5093049;28;854;-58
2022/02/21 06:44:16;;;;;;;;;;;;;;;8.50;69.84;99690.75;5093064;28;894;-58
2022/02/21 06:46:42;;;;;;;;;;;;;;;8.67;69.20;99687.22;5093042;28;850;-59
2022/02/21 06:49:11;;;;;;;;;;;;;;;8.70;68.54;99682.91;5092930;28;1015;-59
2022/02/21 06:51:38;;;;;;;;;;;;;;;9.01;67.27;99688.81;5092762;28;1938;-59
2022/02/21 06:54:05;;;;;;;;;;;;;;;9.43;66.01;99679.72;5092894;28;925;-58
2022/02/21 06:56:32;;;;;;;;;;;;;;;10.00;65.11;99671.22;5092300;28;823;-58
2022/02/21 06:58:58;;;;;;;;;;;;;;;10.42;63.83;99668.66;5092513;28;791;-58
2022/02/21 07:01:25;;;;;;;;;;;;;;;10.45;62.93;99665.06;5092469;28;863;-58
2022/02/21 07:03:52;;;;;;;;;;;;;;;10.02;63.41;99668.84;5092680;28;858;-58
2022/02/21 07:06:18;;;;;;;;;;;;;;;9.59;64.44;99670.97;5092517;28;930;-58
2022/02/21 07:08:44;;;;;;;;;;;;;;;9.27;65.28;99660.03;5092840;28;827;-58
2022/02/21 07:11:11;;;;;;;;;;;;;;;9.08;65.38;99666.75;5092597;28;825;-59
2022/02/21 07:13:38;;;;;;;;;;;;;;;9.05;65.97;99662.81;5092263;28;1941;-58
2022/02/21 07:16:04;;;;;;;;;;;;;;;9.70;64.56;99676.47;5092558;28;1107;-58
2022/02/21 07:18:38;;;;;;;;;;;;;;;10.07;63.67;99675.13;5069222;28;1518;-59
2022/02/21 07:21:05;;;;;;;;;;;;;;;10.27;62.71;99678.97;5069029;28;882;-59
2022/02/21 07:23:31;;;;;;;;;;;;;;;10.67;61.67;99682.31;5068940;28;926;-59
2022/02/21 07:25:57;;;;;;;;;;;;;;;10.37;61.43;99683.69;5069304;28;851;-58
2022/02/21 07:28:24;;;;;;;;;;;;;;;10.60;60.41;99688.69;5068788;28;808;-59
2022/02/21 07:30:50;;;;;;;;;;;;;;;10.68;60.21;99678.34;5069591;28;780;-59
2022/02/21 07:33:17;;;;;;;;;;;;;;;11.02;59.09;99663.84;5068567;28;962;-59
2022/02/21 07:35:43;;;;;;;;;;;;;;;11.08;58.96;99656.69;5068640;28;878;-58
2022/02/21 07:38:10;;;;;;;;;;;;;;;11.89;56.34;99655.44;5068383;28;1905;-58
2022/02/21 07:40:37;;;;;;;;;;;;;;;12.34;55.84;99661.56;5068731;28;819;-59
2022/02/21 07:43:03;;;;;;;;;;;;;;;12.38;55.20;99662.28;5068441;28;886;-58
2022/02/21 07:45:30;;;;;;;;;;;;;;;11.97;56.03;99656.91;5068338;28;867;-58
2022/02/21 07:47:57;;;;;;;;;;;;;;;12.03;56.38;99664.38;5068342;28;831;-59
2022/02/21 07:50:26;;;;;;;;;;;;;;;12.33;55.61;99654.47;5068305;28;918;-58
2022/02/21 07:52:53;;;;;;;;;;;;;;;12.37;55.61;99654.38;5068148;28;949;-59
2022/02/21 07:55:19;;;;;;;;;;;;;;;11.91;56.12;99655.81;5068254;28;897;-58
2022/02/21 07:57:45;;;;;;;;;;;;;;;11.69;56.49;99650.50;5068091;28;1886;-59
2022/02/21 08:00:13;;;;;;;;;;;;;;;11.62;56.87;99643.06;5067976;28;894;-59
2022/02/21 08:02:40;;;;;;;;;;;;;;;11.97;56.53;99649.41;5067992;28;858;-59
2022/02/21 08:05:07;;;;;;;;;;;;;;;12.39;55.59;99644.44;5083639;28;807;-59
2022/02/21 08:07:34;;;;;;;;;;;;;;;12.80;54.55;99643.44;5067801;28;1177;-58
2022/02/21 08:10:01;;;;;;;;;;;;;;;13.55;52.28;99635.78;5067890;28;795;-59
2022/02/21 08:12:27;;;;;;;;;;;;;;;12.90;52.29;99624.25;5066446;28;1333;-59
2022/02/21 08:14:54;;;;;;;;;;;;;;;12.10;54.78;99627.47;5067734;28;909;-59
2022/02/21 08:17:19;;;;;;;;;;;;;;;11.70;55.50;99629.16;5067433;28;1975;-58
2022/02/21 08:19:46;;;;;;;;;;;;;;;11.46;56.18;99623.50;5067859;28;847;-59
2022/02/21 08:22:13;;;;;;;;;;;;;;;11.32;56.47;99616.13;5067597;28;871;-59
2022/02/21 08:24:39;;;;;;;;;;;;;;;11.22;57.20;99608.72;5066229;28;1353;-59
2022/02/21 08:27:06;;;;;;;;;;;;;;;11.26;57.47;99611.47;5067481;28;810;-59
2022/02/21 08:29:32;;;;;;;;;;;;;;;11.12;57.16;99607.66;5056817;28;827;-59
2022/02/21 08:31:59;;;;;;;;;;;;;;;11.10;57.16;99604.50;5054166;28;917;-59
2022/02/21 08:34:27;;;;;;;;;;;;;;;11.07;57.81;99604.53;5069616;28;847;-59
2022/02/21 08:36:53;;;;;;;;;;;;;;;10.94;58.20;99609.78;5054049;28;1897;-59
2022/02/21 08:39:20;;;;;;;;;;;;;;;10.81;58.35;99613.06;5054050;28;922;-59
2022/02/21 08:41:46;;;;;;;;;;;;;;;10.73;59.15;99614.34;5053918;28;908;-59
2022/02/21 08:44:13;;;;;;;;;;;;;;;10.54;59.46;99615.69;5054040;28;803;-59
2022/02/21 08:46:40;;;;;;;;;;;;;;;10.25;60.30;99612.28;5054248;28;808;-58
2022/02/21 08:49:06;;;;;;;;;;;;;;;10.05;60.89;99622.28;5053899;28;964;-59
2022/02/21 08:51:33;;;;;;;;;;;;;;;9.96;61.61;99611.69;5053865;28;878;-59
2022/02/21 08:54:00;;;;;;;;;;;;;;;9.91;62.34;99610.13;5053805;28;825;-59
2022/02/21 08:56:27;;;;;;;;;;;;;;;9.95;62.59;99607.34;5053720;28;1882;-59
2022/02/21 08:58:53;;;;;;;;;;;;;;;10.00;62.85;99612.44;5053607;28;877;-59
2022/02/21 09:01:21;;;;;;;;;;;;;;;10.20;62.09;99609.97;5053664;28;897;-59
2022/02/21 09:03:48;;;;;;;;;;;;;;;10.32;62.31;99603.19;5052400;28;1782;-59
2022/02/21 09:06:16;;;;;;;;;;;;;;;10.30;61.86;99602.81;5053599;28;855;-59
2022/02/21 09:08:42;;;;;;;;;;;;;;;10.38;61.34;99598.81;5053646;28;838;-59
2022/02/21 09:11:09;;;;;;;;;;;;;;;10.46;61.36;99597.56;5053397;28;884;-59
2022/02/21 09:13:36;;;;;;;;;;;;;;;10.53;60.96;99591.97;5053734;28;859;-59
2022/02/21 09:16:03;;;;;;;;;;;;;;;10.63;60.51;99590.34;5053484;28;886;-59
2022/02/21 09:18:30;;;;;;;;;;;;;;;10.74;60.51;99593.00;5052961;28;1983;-59
2022/02/21 09:20:56;;;;;;;;;;;;;;;10.89;60.22;99583.38;5053358;28;878;-59
2022/02/21 09:23:23;;;;;;;;;;;;;;;11.00;59.65;99583.28;5053226;28;946;-59
2022/02/21 09:25:49;;;;;;;;;;;;;;;11.15;59.42;99576.38;5053140;28;1059;-59
2022/02/21 09:28:16;;;;;;;;;;;;;;;11.32;59.18;99571.84;5053533;28;898;-59
2022/02/21 09:30:43;;;;;;;;;;;;;;;11.50;58.06;99576.38;5053159;28;811;-59
2022/02/21 09:33:09;;;;;;;;;;;;;;;11.55;57.96;99559.34;5053058;28;937;-59
2022/02/21 09:35:36;;;;;;;;;;;;;;;11.60;57.79;99558.88;5053265;28;854;-59
2022/02/21 09:38:03;;;;;;;;;;;;;;;11.92;57.14;99552.13;5052914;28;1910;-59
2022/02/21 09:40:30;;;;;;;;;;;;;;;12.05;56.42;99544.81;5051804;28;926;-58
2022/02/21 09:42:59;;;;;;;;;;;;;;;11.83;55.96;99538.78;5052923;28;917;-58
2022/02/21 09:45:28;;;;;;;;;;;;;;;11.74;56.55;99542.06;5052875;28;857;-59
2022/02/21 09:47:55;;;;;;;;;;;;;;;11.78;55.95;99540.03;5052771;28;967;-59
2022/02/21 09:50:24;;;;;;;;;;;;;;;11.70;56.53;99537.78;5052797;28;827;-59
2022/02/21 09:52:51;;;;;;;;;;;;;;;11.72;56.24;99527.84;5053003;28;811;-59
2022/02/21 09:55:17;;;;;;;;;;;;;;;12.09;56.08;99525.38;5052654;28;960;-59
2022/02/21 09:57:44;;;;;;;;;;;;;;;12.49;55.05;99522.75;5052634;28;1886;-59
2022/02/21 10:00:10;;;;;;;;;;;;;;;12.69;54.29;99506.94;5052570;28;843;-59
2022/02/21 10:02:37;;;;;;;;;;;;;;;12.65;53.88;99508.97;5052534;28;858;-59
2022/02/21 10:05:11;;;;;;;;;;;;;;;12.60;54.36;99504.72;5052414;28;855;-59
2022/02/21 10:07:38;;;;;;;;;;;;;;;12.63;53.48;99495.56;5052478;28;989;-59
2022/02/21 10:10:05;;;;;;;;;;;;;;;12.65;53.47;99490.38;5052362;28;898;-59
2022/02/21 10:12:32;;;;;;;;;;;;;;;12.70;53.54;99488.31;5052300;28;957;-59
2022/02/21 10:15:18;;;;;;;;;;;;;;;12.46;53.66;99486.38;5052267;28;948;-59
2022/02/21 10:17:46;;;;;;;;;;;;;;;12.03;54.43;99480.75;5051793;28;1959;-59
2022/02/21 10:20:13;;;;;;;;;;;;;;;11.93;54.67;99476.19;5067558;28;930;-59
2022/02/21 10:22:40;;;;;;;;;;;;;;;11.70;55.19;99485.19;5050864;28;874;-59
2022/02/21 10:25:17;;;;;;;;;;;;;;;11.62;55.42;99471.44;5052149;28;846;-59
2022/02/21 10:27:44;;;;;;;;;;;;;;;11.70;55.57;99466.59;5051996;28;1163;-59
2022/02/21 10:30:16;;;;;;;;;;;;;;;11.90;55.34;99460.38;5052048;28;792;-59
2022/02/21 10:32:43;;;;;;;;;;;;;;;12.23;55.16;99453.91;5051939;28;948;-59
2022/02/21 10:35:22;;;;;;;;;;;;;;;12.28;54.46;99451.84;5051876;28;1138;-59
2022/02/21 10:37:54;;;;;;;;;;;;;;;12.32;54.10;99438.72;5051701;28;1941;-59
2022/02/21 10:40:42;;;;;;;;;;;;;;;12.06;54.02;99446.69;5051922;28;800;-59
2022/02/21 10:43:11;;;;;;;;;;;;;;;12.06;54.19;99441.13;5051813;28;932;-59
2022/02/21 10:45:39;;;;;;;;;;;;;;;12.12;54.73;99430.34;5051814;28;775;-59
2022/02/21 10:48:09;;;;;;;;;;;;;;;12.25;54.17;99420.22;5051683;28;1025;-59
2022/02/21 10:50:39;;;;;;;;;;;;;;;12.48;54.30;99413.84;5051733;28;803;-59
2022/02/21 10:53:13;;;;;;;;;;;;;;;12.73;53.52;99407.06;5051428;28;954;-59
2022/02/21 10:55:40;;;;;;;;;;;;;;;12.83;53.35;99404.06;5051850;28;860;-59
2022/02/21 10:58:23;;;;;;;;;;;;;;;12.80;53.25;99396.59;5051560;28;1890;-59
2022/02/21 11:00:50;;;;;;;;;;;;;;;13.30;52.59;99392.00;5051508;28;902;-59
2022/02/21 11:03:21;;;;;;;;;;;;;;;13.53;51.86;99385.53;5050181;28;1288;-59
2022/02/21 11:05:48;;;;;;;;;;;;;;;14.12;51.03;99380.09;5051817;28;838;-59
2022/02/21 11:08:15;;;;;;;;;;;;;;;14.63;49.87;99370.00;5051312;28;922;-59
2022/02/21 11:11:00;;;;;;;;;;;;;;;14.50;49.54;99366.38;5051512;28;969;-59
2022/02/21 11:13:29;;;;;;;;;;;;;;;13.99;50.32;99357.81;5051501;28;894;-59
2022/02/21 11:15:56;;;;;;;;;;;;;;;14.19;50.26;99354.91;5051460;28;799;-59
2022/02/21 11:18:22;;;;;;;;;;;;;;;14.53;49.66;99325.78;5051317;28;1981;-59
2022/02/21 11:20:50;;;;;;;;;;;;;;;14.68;49.02;99352.78;5051589;28;803;-59
2022/02/21 11:23:16;;;;;;;;;;;;;;;14.45;49.42;99345.44;5051587;28;878;-59
2022/02/21 11:25:51;;;;;;;;;;;;;;;14.15;50.26;99340.34;5051607;28;835;-59
2022/02/21 11:28:44;;;;;;;;;;;;;;;14.23;50.41;99341.69;5051352;28;874;-59
2022/02/21 11:31:14;;;;;;;;;;;;;;;14.57;50.11;99332.03;5050988;28;1326;-59
2022/02/21 11:34:10;;;;;;;;;;;;;;;14.79;49.80;99318.31;5051237;28;925;-59
2022/02/21 11:36:47;;;;;;;;;;;;;;;15.29;49.00;99314.75;5050566;28;1951;-59
2022/02/21 11:39:27;;;;;;;;;;;;;;;16.01;47.52;99311.63;5051143;28;925;-59
2022/02/21 11:42:07;;;;;;;;;;;;;;;16.27;46.98;99306.72;5051168;28;1246;-58
2022/02/21 11:44:46;;;;;;;;;;;;;;;15.88;46.98;99290.16;5051026;28;1225;-59
2022/02/21 11:47:32;;;;;;;;;;;;;;;15.35;48.09;99289.13;5051348;28;871;-59
2022/02/21 11:49:59;;;;;;;;;;;;;;;15.10;48.54;99290.69;5050340;28;1737;-59
2022/02/21 11:52:30;;;;;;;;;;;;;;;15.02;49.32;99283.78;5049858;28;874;-59
2022/02/21 11:54:57;;;;;;;;;;;;;;;15.16;49.50;99283.34;5050930;28;882;-59
2022/02/21 11:57:50;;;;;;;;;;;;;;;15.14;50.47;99262.75;5066374;28;1890;-59
2022/02/21 12:00:37;;;;;;;;;;;;;;;15.19;50.42;99267.75;5050710;28;1351;-59
2022/02/21 12:03:12;;;;;;;;;;;;;;;15.34;49.26;99259.72;5050797;28;1161;-59
2022/02/21 12:05:39;;;;;;;;;;;;;;;15.45;49.37;99254.59;5054760;28;929;-59
2022/02/21 12:08:24;;;;;;;;;;;;;;;15.75;49.04;99246.84;5054586;28;918;-57
2022/02/21 12:11:00;;;;;;;;;;;;;;;15.87;48.99;99240.44;5055054;28;850;-59
2022/02/21 12:13:27;;;;;;;;;;;;;;;16.42;48.09;99237.25;5054505;28;917;-59
2022/02/21 12:16:03;;;;;;;;;;;;;;;16.49;48.01;99237.75;5054574;28;827;-57
2022/02/21 12:18:32;;;;;;;;;;;;;;;16.52;48.00;99228.47;5054305;28;1910;-59
2022/02/21 12:21:19;;;;;;;;;;;;;;;16.31;47.94;99226.50;5054415;28;828;-60
2022/02/21 12:24:00;;;;;;;;;;;;;;;15.95;49.74;99219.44;5054466;28;862;-59
2022/02/21 12:26:27;;;;;;;;;;;;;;;15.54;50.08;99212.13;5054405;28;811;-59
2022/02/21 12:29:15;;;;;;;;;;;;;;;15.30;50.63;99209.75;5054362;28;886;-59
2022/02/21 12:31:43;;;;;;;;;;;;;;;14.84;51.78;99210.03;5054275;28;875;-59
2022/02/21 12:34:11;;;;;;;;;;;;;;;14.58;52.05;99203.69;5054140;28;957;-59
2022/02/21 12:36:38;;;;;;;;;;;;;;;14.64;52.04;99201.91;5069444;28;1890;-58
2022/02/21 12:39:06;;;;;;;;;;;;;;;15.00;51.60;99194.41;5054169;28;1039;-59
2022/02/21 12:41:34;;;;;;;;;;;;;;;14.93;51.32;99195.44;5054088;28;834;-59
2022/02/21 12:44:05;;;;;;;;;;;;;;;14.81;53.04;99188.66;5054000;28;871;-59
2022/02/21 12:46:34;;;;;;;;;;;;;;;14.69;53.29;99181.88;5053944;28;863;-59
2022/02/21 12:49:01;;;;;;;;;;;;;;;14.63;53.74;99180.88;5054464;28;918;-59
2022/02/21 12:51:29;;;;;;;;;;;;;;;14.60;53.55;99181.78;5054131;28;917;-58
2022/02/21 12:53:59;;;;;;;;;;;;;;;14.64;53.55;99176.09;5053896;28;961;-58
2022/02/21 12:56:30;;;;;;;;;;;;;;;14.88;53.36;99170.97;5053823;28;1931;-58
2022/02/21 12:58:56;;;;;;;;;;;;;;;14.83;53.36;99166.75;5052546;28;1218;-59
2022/02/21 13:01:23;;;;;;;;;;;;;;;14.74;53.45;99165.84;5053672;28;859;-59
2022/02/21 13:03:50;;;;;;;;;;;;;;;14.66;53.68;99163.31;5053660;28;983;-59
2022/02/21 13:06:16;;;;;;;;;;;;;;;14.65;53.90;99164.53;5053569;28;799;-59
2022/02/21 13:08:42;;;;;;;;;;;;;;;14.50;53.54;99161.38;5053494;28;911;-58
2022/02/21 13:11:09;;;;;;;;;;;;;;;14.25;53.80;99158.59;5053561;28;795;-59
2022/02/21 13:13:44;;;;;;;;;;;;;;;14.05;54.13;99161.56;5053535;28;815;-59
2022/02/21 13:16:11;;;;;;;;;;;;;;;14.11;54.16;99153.47;5053278;28;991;-59